createdAt,value
2023-03-17T00:02:23.773Z,20.5
2023-03-17T00:08:17.640Z,19.4
2023-03-17T00:13:53.952Z,18.6
2023-03-17T00:19:46.899Z,18
2023-03-17T00:25:39.876Z,17.8
2023-03-17T00:31:17.094Z,17.6
2023-03-17T00:36:38.030Z,17.4
2023-03-17T00:42:15.785Z,17.3
2023-03-17T00:48:08.511Z,18.9
2023-03-17T00:54:00.377Z,20.5
2023-03-17T00:59:38.209Z,19.5
2023-03-17T01:05:40.419Z,18.6
2023-03-17T01:11:17.080Z,18
2023-03-17T01:16:55.268Z,17.7
2023-03-17T01:22:47.433Z,17.6
2023-03-17T01:28:39.345Z,17.4
2023-03-17T01:34:17.129Z,17.3
2023-03-17T01:45:32.412Z,20.3
2023-03-17T01:51:26.219Z,20.1
2023-03-17T02:02:08.239Z,18.1
2023-03-17T02:08:14.621Z,17.8
2023-03-17T02:14:07.332Z,17.6
2023-03-17T02:19:59.473Z,17.3
2023-03-17T02:25:21.998Z,17.3
2023-03-17T02:30:59.162Z,18.1
2023-03-17T02:36:37.034Z,20.1
2023-03-17T02:42:14.912Z,20.8
2023-03-17T02:47:51.731Z,18.9
2023-03-17T02:53:27.669Z,18.3
2023-03-17T02:59:05.474Z,17.7
2023-03-17T03:04:58.978Z,17.6
2023-03-17T03:10:51.018Z,17.4
2023-03-17T03:16:45.162Z,17.3
2023-03-17T03:22:38.209Z,17.8
2023-03-17T03:28:29.148Z,19.9
2023-03-17T03:34:07.580Z,17.1
2023-03-17T03:40:00.236Z,19.1
2023-03-17T03:45:34.955Z,20.6
2023-03-17T03:51:12.433Z,19.7
2023-03-17T03:57:04.533Z,18.6
2023-03-17T04:02:43.597Z,17.9
2023-03-17T04:08:20.408Z,17.6
2023-03-17T04:14:12.783Z,17.4
2023-03-17T04:20:05.569Z,17.5
2023-03-17T04:25:58.530Z,20
2023-03-17T04:31:54.043Z,20.8
2023-03-17T04:37:34.518Z,18.9
2023-03-17T04:43:27.835Z,18.2
2023-03-17T04:49:05.844Z,17.7
2023-03-17T04:54:46.652Z,17.6
2023-03-17T05:00:53.724Z,17.3
2023-03-17T05:07:13.981Z,19.1
2023-03-17T05:12:52.860Z,20.5
2023-03-17T05:18:45.827Z,19.9
2023-03-17T05:24:37.982Z,18.6
2023-03-17T05:30:30.754Z,17.9
2023-03-17T05:36:24.896Z,17.6
2023-03-17T05:42:18.717Z,17.4
2023-03-17T05:48:11.742Z,17.3
2023-03-17T05:54:06.786Z,19.8
2023-03-17T05:59:43.733Z,20.8
2023-03-17T06:05:36.744Z,19.2
2023-03-17T06:11:28.760Z,18.3
2023-03-17T06:17:21.378Z,17.8
2023-03-17T06:23:23.724Z,17.6
2023-03-17T06:29:15.824Z,17.4
2023-03-17T06:35:22.717Z,18.6
2023-03-17T06:41:15.018Z,20.3
2023-03-17T06:47:10.762Z,17.8
2023-03-17T06:53:04.120Z,18.8
2023-03-17T06:59:14.330Z,20.6
2023-03-17T07:05:06.818Z,19.4
2023-03-17T07:10:59.503Z,18.4
2023-03-17T07:16:52.254Z,17.8
2023-03-17T07:22:45.376Z,17.5
2023-03-17T07:28:38.233Z,17.4
2023-03-17T07:34:00.283Z,18.2
2023-03-17T07:39:38.467Z,20.2
2023-03-17T07:45:31.180Z,20.8
2023-03-17T07:51:37.360Z,18.9
2023-03-17T07:57:33.486Z,18.1
2023-03-17T08:03:42.730Z,17.6
2023-03-17T08:09:34.947Z,17.5
2023-03-17T08:15:27.996Z,17.3
2023-03-17T08:21:22.647Z,19.6
2023-03-17T08:27:18.049Z,20.4
2023-03-17T08:33:13.072Z,19.1
2023-03-17T08:38:52.792Z,18.1
2023-03-17T08:44:45.397Z,17.8
2023-03-17T08:50:23.568Z,17.5
2023-03-17T08:56:01.261Z,17.4
2023-03-17T09:01:54.488Z,18.2
2023-03-17T09:08:08.936Z,20.3
2023-03-17T09:14:03.281Z,20.3
2023-03-17T09:19:52.589Z,18.4
2023-03-17T09:25:46.130Z,17.9
2023-03-17T09:31:40.369Z,17.6
2023-03-17T09:37:06.243Z,17.5
2023-03-17T09:43:00.260Z,17.3
2023-03-17T09:48:53.672Z,19.3
2023-03-17T09:54:47.610Z,20.6
2023-03-17T10:00:40.377Z,19.6
2023-03-17T10:06:33.832Z,18.2
2023-03-17T10:12:39.049Z,17.8
2023-03-17T10:18:33.346Z,17.4
2023-03-17T10:23:55.680Z,17.1
2023-03-17T10:29:51.455Z,19
2023-03-17T10:35:45.335Z,20.6
2023-03-17T10:41:48.703Z,19.8
2023-03-17T10:47:41.983Z,18.2
2023-03-17T10:53:35.176Z,17.8
2023-03-17T10:59:28.560Z,17.4
2023-03-17T11:05:22.219Z,17.2
2023-03-17T11:11:15.933Z,19
2023-03-17T11:17:07.977Z,20.6
2023-03-17T11:23:00.810Z,19.7
2023-03-17T11:28:23.584Z,18.4
2023-03-17T11:34:16.638Z,18.1
2023-03-17T11:40:09.441Z,17.7
2023-03-17T11:46:02.443Z,18.9
2023-03-17T11:51:55.267Z,20.7
2023-03-17T11:57:47.951Z,19.4
2023-03-17T12:03:40.894Z,18.1
2023-03-17T12:09:33.779Z,17.6
2023-03-17T12:15:26.610Z,19.9
2023-03-17T12:21:22.104Z,20.8
2023-03-17T12:32:52.165Z,18.1
2023-03-17T12:38:49.156Z,17.8
2023-03-17T12:44:42.792Z,20.7
2023-03-17T12:50:37.031Z,19.7
2023-03-17T12:56:28.742Z,18.3
2023-03-17T13:02:22.515Z,17.9
2023-03-17T13:08:20.075Z,19.3
2023-03-17T13:19:50.707Z,19
2023-03-17T13:25:46.136Z,18.1
2023-03-17T13:31:44.428Z,17.8
2023-03-17T13:37:37.715Z,19.9
2023-03-17T13:44:00.528Z,20.4
2023-03-17T13:49:54.902Z,18.6
2023-03-17T13:55:53.066Z,18.1
2023-03-17T14:01:47.167Z,17.7
2023-03-17T14:07:40.792Z,20.3
2023-03-17T14:13:33.843Z,19.9
2023-03-17T14:19:21.141Z,18.6
2023-03-17T14:25:18.179Z,18.1
2023-03-17T14:31:13.851Z,17.7
2023-03-17T14:36:51.842Z,19.4
2023-03-17T14:42:45.147Z,20.9
2023-03-17T14:48:38.027Z,19.1
2023-03-17T14:54:30.290Z,18.3
2023-03-17T15:00:24.611Z,17.9
2023-03-17T15:06:18.812Z,17.6
2023-03-17T15:12:14.064Z,19.9
2023-03-17T15:18:07.472Z,20.4
2023-03-17T15:24:00.957Z,18.8
2023-03-17T15:29:53.915Z,18.3
2023-03-17T15:35:55.070Z,17.9
2023-03-17T15:41:54.190Z,17.6
2023-03-17T15:47:46.949Z,17.4
2023-03-17T15:53:40.467Z,17.1
2023-03-17T15:59:35.774Z,16.9
2023-03-17T16:05:27.500Z,16.7
2023-03-17T16:11:21.001Z,16.6
2023-03-17T16:17:29.185Z,16.5
2023-03-17T16:23:21.970Z,16.4
2023-03-17T16:29:26.054Z,16.4
2023-03-17T16:35:02.818Z,16.6
2023-03-17T16:40:55.530Z,16.8
2023-03-17T16:47:00.493Z,16.9
2023-03-17T16:58:31.423Z,17.1
2023-03-17T17:03:54.518Z,17.1
2023-03-17T17:09:30.887Z,17.1
2023-03-17T17:15:07.832Z,17.3
2023-03-17T17:20:44.909Z,17.4
2023-03-17T17:26:23.631Z,17.4
2023-03-17T17:31:46.367Z,17.4
2023-03-17T17:37:39.379Z,17.4
2023-03-17T17:43:33.183Z,17.4
2023-03-17T17:49:12.556Z,17.6
2023-03-17T17:55:05.863Z,17.9
2023-03-17T18:00:42.225Z,18.3
2023-03-17T18:06:04.218Z,18.4
2023-03-17T18:11:42.388Z,18.5
2023-03-17T18:17:18.859Z,18.6
2023-03-17T18:23:11.104Z,18.6
2023-03-17T18:29:04.670Z,18.5
2023-03-17T18:34:42.881Z,18.4
2023-03-17T18:40:34.165Z,18.4
2023-03-17T18:46:11.769Z,18.3
2023-03-17T18:51:33.754Z,18.3
2023-03-17T18:57:26.217Z,18.3
2023-03-17T19:03:20.809Z,18.3
2023-03-17T19:08:43.396Z,18.2
2023-03-17T19:14:35.354Z,18.1
2023-03-17T19:20:27.614Z,18.1
2023-03-17T19:26:04.001Z,17.9
2023-03-17T19:31:42.277Z,17.9
2023-03-17T19:37:37.291Z,17.8
2023-03-17T19:42:58.648Z,17.6
2023-03-17T19:48:31.164Z,17.4
2023-03-17T19:53:53.793Z,17.3
2023-03-17T19:59:30.469Z,17.3
2023-03-17T20:05:24.052Z,17.3
2023-03-17T20:11:16.887Z,17.3
2023-03-17T20:16:41.008Z,17.4
2023-03-17T20:22:03.299Z,17.5
2023-03-17T20:27:25.977Z,17.6
2023-03-17T20:33:03.303Z,17.6
2023-03-17T20:38:58.841Z,17.7
2023-03-17T20:44:50.912Z,17.6
2023-03-17T20:50:43.812Z,17.5
2023-03-17T20:56:39.483Z,17.4
2023-03-17T21:02:32.857Z,17.3
2023-03-17T21:08:25.311Z,17.1
2023-03-17T21:14:18.957Z,16.9
2023-03-17T21:19:59.583Z,16.8
2023-03-17T21:25:37.453Z,16.6
2023-03-17T21:30:59.076Z,16.5
2023-03-17T21:36:52.525Z,16.4
2023-03-17T21:42:47.875Z,16.3
2023-03-17T21:48:40.871Z,16.2
2023-03-17T21:54:34.428Z,17.8
2023-03-17T22:00:12.195Z,18.9
2023-03-17T22:05:42.398Z,18.8
2023-03-17T22:16:43.225Z,18.4
2023-03-17T22:22:23.484Z,18.4
2023-03-17T22:28:17.069Z,18.2
2023-03-17T22:34:10.654Z,18.1
2023-03-17T22:40:05.097Z,18
2023-03-17T22:45:46.054Z,17.8
2023-03-17T22:51:23.176Z,17.9
2023-03-17T22:57:00.118Z,17.7
2023-03-17T23:02:53.040Z,17.7
2023-03-17T23:08:40.325Z,17.4
2023-03-17T23:14:32.741Z,17.5
2023-03-17T23:20:26.654Z,17.4
2023-03-17T23:26:18.898Z,17.4
2023-03-17T23:32:12.558Z,18.6
2023-03-17T23:37:50.966Z,20.5
2023-03-17T23:43:28.534Z,19.3
2023-03-17T23:49:21.925Z,18.6
2023-03-17T23:54:44.025Z,18.2
